createdAt,value
2022-12-09T00:01:18.171Z,58.03
2022-12-09T00:03:56.225Z,58.13
2022-12-09T00:06:31.303Z,58.05
2022-12-09T00:09:05.812Z,58.21
2022-12-09T00:11:38.145Z,58.13
2022-12-09T00:14:12.576Z,58.40
2022-12-09T00:16:44.870Z,58.20
2022-12-09T00:19:18.808Z,58.18
2022-12-09T00:21:51.200Z,58.14
2022-12-09T00:24:23.032Z,58.26
2022-12-09T00:26:56.035Z,57.88
2022-12-09T00:29:30.667Z,57.89
2022-12-09T00:32:03.708Z,58.01
2022-12-09T00:34:36.284Z,58.10
2022-12-09T00:37:09.079Z,58.16
2022-12-09T00:39:41.229Z,57.96
2022-12-09T00:42:13.434Z,57.82
2022-12-09T00:44:45.372Z,57.90
2022-12-09T00:47:17.488Z,57.99
2022-12-09T00:49:49.546Z,57.87
2022-12-09T00:52:21.764Z,57.97
2022-12-09T00:54:53.847Z,58.05
2022-12-09T00:57:28.329Z,57.94
2022-12-09T01:00:01.926Z,57.84
2022-12-09T01:02:35.490Z,58.00
2022-12-09T01:05:10.087Z,57.81
2022-12-09T01:07:43.815Z,57.89
2022-12-09T01:10:18.282Z,58.01
2022-12-09T01:12:51.064Z,58.06
2022-12-09T01:15:23.364Z,57.98
2022-12-09T01:17:56.211Z,58.25
2022-12-09T01:20:29.546Z,58.18
2022-12-09T01:23:04.540Z,58.13
2022-12-09T01:25:39.349Z,58.22
2022-12-09T01:28:12.608Z,58.09
2022-12-09T01:30:45.216Z,58.12
2022-12-09T01:33:17.008Z,58.10
2022-12-09T01:35:52.066Z,58.14
2022-12-09T01:38:27.156Z,58.24
2022-12-09T01:40:59.324Z,58.16
2022-12-09T01:43:32.402Z,58.12
2022-12-09T01:46:06.995Z,58.11
2022-12-09T01:48:41.744Z,58.12
2022-12-09T01:51:20.025Z,58.24
2022-12-09T01:53:53.611Z,58.23
2022-12-09T01:56:28.626Z,58.34
2022-12-09T01:59:07.260Z,58.22
2022-12-09T02:01:42.376Z,58.14
2022-12-09T02:04:17.025Z,58.21
2022-12-09T02:06:49.640Z,58.12
2022-12-09T02:09:22.335Z,58.09
2022-12-09T02:12:04.614Z,58.13
2022-12-09T02:14:43.009Z,58.18
2022-12-09T02:17:28.743Z,58.39
2022-12-09T02:20:07.771Z,58.39
2022-12-09T02:22:44.020Z,58.42
2022-12-09T02:25:25.969Z,58.39
2022-12-09T02:28:11.860Z,58.23
2022-12-09T02:30:50.350Z,58.14
2022-12-09T02:33:32.318Z,58.29
2022-12-09T02:36:09.304Z,58.38
2022-12-09T02:38:46.858Z,58.32
2022-12-09T02:41:23.249Z,58.45
2022-12-09T02:44:00.411Z,58.45
2022-12-09T02:46:33.788Z,58.41
2022-12-09T02:49:08.029Z,58.38
2022-12-09T02:51:42.419Z,58.42
2022-12-09T02:54:17.757Z,58.43
2022-12-09T02:56:57.815Z,58.37
2022-12-09T02:59:32.305Z,58.27
2022-12-09T03:02:14.024Z,58.46
2022-12-09T03:04:49.798Z,58.38
2022-12-09T03:07:30.975Z,58.44
2022-12-09T03:10:08.650Z,58.57
2022-12-09T03:12:43.365Z,58.50
2022-12-09T03:15:17.108Z,58.62
2022-12-09T03:17:50.085Z,58.62
2022-12-09T03:20:26.469Z,58.49
2022-12-09T03:23:05.780Z,58.40
2022-12-09T03:25:43.909Z,58.75
2022-12-09T03:28:21.909Z,58.72
2022-12-09T03:30:54.798Z,58.78
2022-12-09T03:33:30.720Z,58.82
2022-12-09T03:36:06.903Z,58.74
2022-12-09T03:38:40.955Z,58.76
2022-12-09T03:41:18.721Z,58.87
2022-12-09T03:43:54.950Z,58.72
2022-12-09T03:46:29.286Z,58.86
2022-12-09T03:49:03.040Z,58.89
2022-12-09T03:51:39.799Z,58.83
2022-12-09T03:54:17.340Z,59.06
2022-12-09T03:56:57.002Z,58.95
2022-12-09T03:59:32.903Z,58.79
2022-12-09T04:02:07.849Z,58.78
2022-12-09T04:04:43.510Z,58.85
2022-12-09T04:07:18.150Z,58.97
2022-12-09T04:09:51.367Z,58.94
2022-12-09T04:12:23.638Z,58.92
2022-12-09T04:14:57.688Z,58.68
2022-12-09T04:17:29.868Z,58.65
2022-12-09T04:20:04.832Z,58.55
2022-12-09T04:22:39.296Z,58.66
2022-12-09T04:25:15.771Z,58.70
2022-12-09T04:27:52.882Z,58.91
2022-12-09T04:30:27.142Z,58.88
2022-12-09T04:33:00.338Z,58.81
2022-12-09T04:35:37.032Z,58.91
2022-12-09T04:38:08.987Z,58.94
2022-12-09T04:40:42.245Z,58.88
2022-12-09T04:43:19.183Z,58.77
2022-12-09T04:45:51.718Z,58.89
2022-12-09T04:48:24.270Z,58.79
2022-12-09T04:50:56.161Z,58.72
2022-12-09T04:53:29.842Z,58.92
2022-12-09T04:56:06.751Z,59.08
2022-12-09T04:58:39.079Z,59.17
2022-12-09T05:01:14.535Z,59.24
2022-12-09T05:03:51.994Z,59.23
2022-12-09T05:06:26.866Z,59.17
2022-12-09T05:09:01.305Z,59.18
2022-12-09T05:11:36.048Z,59.14
2022-12-09T05:14:09.566Z,59.08
2022-12-09T05:16:42.740Z,58.99
2022-12-09T05:19:17.998Z,59.09
2022-12-09T05:21:50.845Z,59.19
2022-12-09T05:24:24.870Z,59.26
2022-12-09T05:26:57.082Z,59.31
2022-12-09T05:29:32.037Z,59.38
2022-12-09T05:32:05.086Z,59.47
2022-12-09T05:34:39.600Z,59.45
2022-12-09T05:37:16.624Z,59.19
2022-12-09T05:39:52.628Z,59.18
2022-12-09T05:42:27.531Z,59.32
2022-12-09T05:45:00.426Z,59.29
2022-12-09T05:47:35.387Z,59.37
2022-12-09T05:50:10.439Z,59.40
2022-12-09T05:52:43.967Z,59.42
2022-12-09T05:55:17.045Z,59.23
2022-12-09T05:57:51.067Z,59.22
2022-12-09T06:00:25.730Z,59.36
2022-12-09T06:02:59.271Z,59.37
2022-12-09T06:05:35.657Z,59.29
2022-12-09T06:08:09.908Z,59.32
2022-12-09T06:10:43.441Z,59.17
2022-12-09T06:13:17.080Z,59.38
2022-12-09T06:15:52.007Z,59.25
2022-12-09T06:18:26.124Z,59.41
2022-12-09T06:20:59.799Z,59.53
2022-12-09T06:23:34.321Z,59.37
2022-12-09T06:26:10.477Z,59.29
2022-12-09T06:28:45.072Z,59.39
2022-12-09T06:31:19.076Z,59.24
2022-12-09T06:33:55.300Z,59.27
2022-12-09T06:36:33.880Z,59.42
2022-12-09T06:39:10.521Z,59.56
2022-12-09T06:41:44.999Z,59.53
2022-12-09T06:44:23.474Z,59.52
2022-12-09T06:46:57.698Z,59.70
2022-12-09T06:49:30.103Z,59.51
2022-12-09T06:52:04.497Z,59.58
2022-12-09T06:54:40.869Z,59.54
2022-12-09T06:57:15.108Z,59.40
2022-12-09T06:59:48.178Z,59.71
2022-12-09T07:02:20.771Z,59.78
2022-12-09T07:04:56.768Z,59.78
2022-12-09T07:07:30.574Z,59.80
2022-12-09T07:10:08.104Z,59.88
2022-12-09T07:12:41.275Z,59.78
2022-12-09T07:15:16.429Z,59.84
2022-12-09T07:17:49.003Z,59.93
2022-12-09T07:20:22.349Z,60.01
2022-12-09T07:22:58.694Z,60.03
2022-12-09T07:25:31.947Z,59.85
2022-12-09T07:28:04.427Z,59.92
2022-12-09T07:30:38.622Z,60.23
2022-12-09T07:33:12.379Z,60.29
2022-12-09T07:35:44.788Z,60.20
2022-12-09T07:38:19.439Z,60.10
2022-12-09T07:40:54.221Z,60.20
2022-12-09T07:43:26.528Z,60.31
2022-12-09T07:45:58.824Z,60.19
2022-12-09T07:48:31.972Z,60.44
2022-12-09T07:51:05.682Z,60.24
2022-12-09T07:53:41.277Z,60.33
2022-12-09T07:56:16.335Z,60.16
2022-12-09T07:58:51.309Z,60.30
2022-12-09T08:01:25.987Z,60.26
2022-12-09T08:04:01.478Z,60.05
2022-12-09T08:06:35.843Z,59.85
2022-12-09T08:09:12.415Z,59.91
2022-12-09T08:11:44.623Z,60.14
2022-12-09T08:14:17.611Z,59.95
2022-12-09T08:16:49.930Z,60.01
2022-12-09T08:19:24.581Z,60.19
2022-12-09T08:21:59.165Z,59.92
2022-12-09T08:24:32.693Z,59.98
2022-12-09T08:27:06.057Z,59.89
2022-12-09T08:29:40.191Z,59.81
2022-12-09T08:32:15.055Z,59.63
2022-12-09T08:34:48.380Z,59.88
2022-12-09T08:37:21.702Z,59.90
2022-12-09T08:39:55.248Z,59.76
2022-12-09T08:42:30.679Z,59.67
2022-12-09T08:45:06.671Z,59.82
2022-12-09T08:47:39.568Z,60.02
2022-12-09T08:50:14.446Z,59.77
2022-12-09T08:52:46.670Z,59.81
2022-12-09T08:55:18.965Z,60.09
2022-12-09T08:57:53.989Z,60.00
2022-12-09T09:00:27.865Z,59.86
2022-12-09T09:03:01.235Z,59.52
2022-12-09T09:05:35.181Z,59.49
2022-12-09T09:08:11.147Z,59.37
2022-12-09T09:10:44.101Z,59.31
2022-12-09T09:13:19.610Z,59.25
2022-12-09T09:15:52.632Z,59.04
2022-12-09T09:18:26.382Z,58.95
2022-12-09T09:20:59.753Z,58.99
2022-12-09T09:23:33.290Z,58.89
2022-12-09T09:26:07.011Z,58.60
2022-12-09T09:28:39.949Z,58.74
2022-12-09T09:31:16.661Z,58.87
2022-12-09T09:33:49.915Z,58.68
2022-12-09T09:36:25.076Z,58.58
2022-12-09T09:39:00.278Z,58.55
2022-12-09T09:41:46.334Z,58.23
2022-12-09T09:44:25.602Z,58.26
2022-12-09T09:47:01.238Z,58.25
2022-12-09T09:49:41.395Z,58.19
2022-12-09T09:52:19.084Z,57.91
2022-12-09T09:54:51.979Z,57.58
2022-12-09T09:57:31.546Z,57.55
2022-12-09T10:00:19.638Z,57.51
2022-12-09T10:03:00.984Z,57.35
2022-12-09T10:05:36.032Z,56.96
2022-12-09T10:08:33.682Z,57.27
2022-12-09T10:11:18.925Z,57.55
2022-12-09T10:14:00.448Z,57.24
2022-12-09T10:16:37.989Z,57.02
2022-12-09T10:19:18.957Z,57.07
2022-12-09T10:21:55.425Z,56.88
2022-12-09T10:24:39.301Z,56.50
2022-12-09T10:27:19.999Z,56.39
2022-12-09T10:29:57.828Z,56.53
2022-12-09T10:32:33.757Z,56.35
2022-12-09T10:35:16.983Z,56.54
2022-12-09T10:37:52.509Z,56.77
2022-12-09T10:40:37.093Z,56.50
2022-12-09T10:43:38.643Z,55.94
2022-12-09T10:46:19.251Z,55.67
2022-12-09T10:49:03.366Z,55.70
2022-12-09T10:51:39.694Z,55.70
2022-12-09T10:54:29.025Z,55.63
2022-12-09T10:57:25.094Z,55.57
2022-12-09T11:00:07.939Z,55.63
2022-12-09T11:02:53.079Z,55.32
2022-12-09T11:05:30.332Z,55.03
2022-12-09T11:08:05.181Z,55.06
2022-12-09T11:10:40.021Z,55.24
2022-12-09T11:13:21.053Z,55.10
2022-12-09T11:15:59.652Z,55.16
2022-12-09T11:18:37.992Z,55.20
2022-12-09T11:21:31.717Z,55.40
2022-12-09T11:24:06.882Z,55.25
2022-12-09T11:26:43.297Z,54.98
2022-12-09T11:29:19.692Z,54.96
2022-12-09T11:31:56.310Z,54.97
2022-12-09T11:34:29.063Z,55.09
2022-12-09T11:37:02.851Z,54.91
2022-12-09T11:39:36.464Z,54.82
2022-12-09T11:42:18.840Z,54.84
2022-12-09T11:44:58.026Z,55.15
2022-12-09T11:47:57.331Z,55.12
2022-12-09T11:50:31.710Z,55.16
2022-12-09T11:53:25.436Z,54.92
2022-12-09T11:56:03.301Z,54.90
2022-12-09T11:58:40.587Z,55.02
2022-12-09T12:01:16.772Z,54.24
2022-12-09T12:03:54.027Z,53.45
2022-12-09T12:06:28.728Z,53.68
2022-12-09T12:09:07.136Z,53.90
2022-12-09T12:11:43.273Z,53.61
2022-12-09T12:14:24.675Z,53.63
2022-12-09T12:17:05.122Z,53.46
2022-12-09T12:19:40.215Z,53.39
2022-12-09T12:22:26.719Z,53.36
2022-12-09T12:25:17.780Z,52.79
2022-12-09T12:28:14.302Z,53.03
2022-12-09T12:30:54.278Z,53.39
2022-12-09T12:34:07.917Z,53.59
2022-12-09T12:36:39.577Z,53.88
2022-12-09T12:39:20.438Z,53.74
2022-12-09T12:42:01.415Z,53.73
2022-12-09T12:45:11.575Z,53.81
2022-12-09T12:47:48.548Z,53.66
2022-12-09T12:50:39.897Z,53.52
2022-12-09T12:53:19.254Z,53.50
2022-12-09T12:55:58.531Z,53.51
2022-12-09T12:58:44.336Z,53.43
2022-12-09T13:01:30.274Z,53.59
2022-12-09T13:04:18.878Z,53.41
2022-12-09T13:06:54.267Z,53.24
2022-12-09T13:09:30.705Z,53.20
2022-12-09T13:12:11.548Z,53.14
2022-12-09T13:14:52.249Z,53.25
2022-12-09T13:17:28.546Z,53.38
2022-12-09T13:20:02.938Z,53.44
2022-12-09T13:22:41.957Z,53.32
2022-12-09T13:25:26.132Z,53.42
2022-12-09T13:28:02.292Z,53.46
2022-12-09T13:30:39.555Z,53.46
2022-12-09T13:33:30.803Z,53.27
2022-12-09T13:36:06.589Z,53.32
2022-12-09T13:38:42.411Z,53.39
2022-12-09T13:41:59.704Z,53.29
2022-12-09T13:44:36.232Z,53.27
2022-12-09T13:47:29.470Z,53.30
2022-12-09T13:50:06.838Z,53.42
2022-12-09T13:52:46.187Z,53.43
2022-12-09T13:55:32.934Z,53.43
2022-12-09T13:58:27.016Z,53.45
2022-12-09T14:01:07.719Z,53.50
2022-12-09T14:03:41.587Z,53.52
2022-12-09T14:06:23.627Z,53.60
2022-12-09T14:08:58.537Z,53.54
2022-12-09T14:11:49.504Z,53.44
2022-12-09T14:15:02.036Z,53.33
2022-12-09T14:18:04.567Z,53.47
2022-12-09T14:20:40.459Z,53.77
2022-12-09T14:23:19.180Z,53.89
2022-12-09T14:26:09.944Z,53.46
2022-12-09T14:28:57.153Z,53.80
2022-12-09T14:31:59.905Z,53.85
2022-12-09T14:34:42.081Z,54.01
2022-12-09T14:37:52.212Z,54.00
2022-12-09T14:40:35.632Z,54.09
2022-12-09T14:43:22.326Z,54.03
2022-12-09T14:45:58.062Z,54.04
2022-12-09T14:48:34.350Z,54.51
2022-12-09T14:51:16.244Z,54.60
2022-12-09T14:53:53.384Z,54.60
2022-12-09T14:56:28.554Z,54.71
2022-12-09T14:59:04.823Z,54.90
2022-12-09T15:01:53.124Z,54.93
2022-12-09T15:04:34.303Z,54.95
2022-12-09T15:07:21.107Z,55.17
2022-12-09T15:09:58.327Z,55.43
2022-12-09T15:12:34.233Z,55.69
2022-12-09T15:15:13.836Z,55.79
2022-12-09T15:17:49.816Z,56.10
2022-12-09T15:20:27.394Z,56.01
2022-12-09T15:23:03.988Z,56.05
2022-12-09T15:25:38.379Z,56.11
2022-12-09T15:28:21.440Z,55.96
2022-12-09T15:31:00.296Z,56.06
2022-12-09T15:33:41.388Z,55.83
2022-12-09T15:36:16.048Z,56.05
2022-12-09T15:38:51.310Z,56.43
2022-12-09T15:41:41.731Z,56.67
2022-12-09T15:44:18.910Z,56.87
2022-12-09T15:46:53.644Z,56.85
2022-12-09T15:49:27.554Z,57.12
2022-12-09T15:52:00.217Z,57.49
2022-12-09T15:54:35.880Z,57.58
2022-12-09T15:57:10.259Z,57.76
2022-12-09T15:59:49.723Z,57.68
2022-12-09T16:02:29.880Z,57.77
2022-12-09T16:05:05.795Z,57.79
2022-12-09T16:07:39.550Z,58.00
2022-12-09T16:10:17.525Z,58.09
2022-12-09T16:13:09.948Z,58.34
2022-12-09T16:15:54.423Z,58.45
2022-12-09T16:18:30.196Z,58.66
2022-12-09T16:21:27.739Z,58.58
2022-12-09T16:24:14.077Z,58.66
2022-12-09T16:26:51.157Z,58.80
2022-12-09T16:29:27.412Z,58.60
2022-12-09T16:32:23.504Z,58.71
2022-12-09T16:34:57.655Z,58.91
2022-12-09T16:37:40.025Z,58.98
2022-12-09T16:40:48.625Z,58.97
2022-12-09T16:43:26.248Z,59.03
2022-12-09T16:45:59.886Z,59.23
2022-12-09T16:48:33.264Z,59.14
2022-12-09T16:51:14.459Z,59.06
2022-12-09T16:53:50.925Z,59.11
2022-12-09T16:56:26.141Z,59.07
2022-12-09T16:58:59.343Z,59.24
2022-12-09T17:01:37.144Z,59.30
2022-12-09T17:04:16.291Z,59.14
2022-12-09T17:06:49.031Z,59.31
2022-12-09T17:09:21.815Z,59.29
2022-12-09T17:11:54.309Z,59.38
2022-12-09T17:14:28.959Z,59.58
2022-12-09T17:17:04.011Z,59.39
2022-12-09T17:19:38.580Z,59.11
2022-12-09T17:22:11.133Z,59.10
2022-12-09T17:24:44.784Z,59.02
2022-12-09T17:27:18.249Z,58.94
2022-12-09T17:29:51.039Z,59.00
2022-12-09T17:32:23.615Z,59.04
2022-12-09T17:34:58.182Z,59.11
2022-12-09T17:37:31.027Z,59.00
2022-12-09T17:40:04.728Z,59.22
2022-12-09T17:42:37.881Z,59.36
2022-12-09T17:45:12.144Z,59.29
2022-12-09T17:47:44.176Z,59.12
2022-12-09T17:50:17.293Z,59.17
2022-12-09T17:52:49.909Z,59.02
2022-12-09T17:55:22.197Z,59.10
2022-12-09T17:57:57.821Z,59.44
2022-12-09T18:00:30.754Z,59.79
2022-12-09T18:03:05.358Z,59.77
2022-12-09T18:05:41.371Z,59.88
2022-12-09T18:08:15.865Z,59.73
2022-12-09T18:10:52.185Z,59.78
2022-12-09T18:13:24.295Z,59.95
2022-12-09T18:15:57.663Z,59.91
2022-12-09T18:18:31.515Z,59.91
2022-12-09T18:21:10.603Z,59.80
2022-12-09T18:23:48.322Z,59.82
2022-12-09T18:26:25.752Z,59.62
2022-12-09T18:29:00.945Z,59.90
2022-12-09T18:31:36.884Z,60.00
2022-12-09T18:34:09.872Z,60.13
2022-12-09T18:36:43.453Z,59.90
2022-12-09T18:39:19.298Z,59.94
2022-12-09T18:41:51.719Z,59.79
2022-12-09T18:44:27.223Z,60.50
2022-12-09T18:47:00.810Z,60.68
2022-12-09T18:49:37.479Z,60.74
2022-12-09T18:52:10.557Z,60.43
2022-12-09T18:54:42.857Z,60.62
2022-12-09T18:57:15.091Z,60.45
2022-12-09T18:59:49.035Z,60.43
2022-12-09T19:02:21.738Z,60.34
2022-12-09T19:04:54.676Z,60.21
2022-12-09T19:07:32.075Z,60.26
2022-12-09T19:10:06.679Z,60.23
2022-12-09T19:12:49.730Z,60.22
2022-12-09T19:15:23.973Z,60.50
2022-12-09T19:17:57.537Z,60.62
2022-12-09T19:20:32.654Z,60.70
2022-12-09T19:23:06.052Z,60.76
2022-12-09T19:25:43.082Z,60.79
2022-12-09T19:28:17.545Z,60.84
2022-12-09T19:30:51.050Z,60.84
2022-12-09T19:33:25.056Z,60.83
2022-12-09T19:35:57.212Z,60.98
2022-12-09T19:38:33.057Z,60.92
2022-12-09T19:41:07.449Z,60.80
2022-12-09T19:43:42.256Z,60.82
2022-12-09T19:46:15.914Z,61.27
2022-12-09T19:48:51.392Z,61.18
2022-12-09T19:51:26.095Z,61.13
2022-12-09T19:54:00.838Z,61.07
2022-12-09T19:56:35.496Z,61.10
2022-12-09T19:59:10.211Z,61.14
2022-12-09T20:01:45.540Z,61.28
2022-12-09T20:04:47.649Z,61.17
2022-12-09T20:07:13.165Z,61.21
2022-12-09T20:09:46.465Z,61.28
2022-12-09T20:12:18.543Z,61.16
2022-12-09T20:14:52.326Z,61.34
2022-12-09T20:17:24.506Z,61.36
2022-12-09T20:19:58.115Z,61.54
2022-12-09T20:22:32.225Z,61.36
2022-12-09T20:25:06.424Z,61.23
2022-12-09T20:27:39.581Z,61.17
2022-12-09T20:30:19.550Z,61.11
2022-12-09T20:32:52.266Z,61.35
2022-12-09T20:35:24.713Z,61.44
2022-12-09T20:37:56.802Z,61.33
2022-12-09T20:40:28.957Z,61.58
2022-12-09T20:43:02.056Z,61.48
2022-12-09T20:45:36.882Z,61.55
2022-12-09T20:48:10.291Z,61.35
2022-12-09T20:50:43.153Z,61.36
2022-12-09T20:53:17.477Z,61.12
2022-12-09T20:55:59.576Z,60.90
2022-12-09T20:58:34.720Z,61.13
2022-12-09T21:01:13.290Z,60.81
2022-12-09T21:03:48.394Z,60.67
2022-12-09T21:06:23.340Z,61.02
2022-12-09T21:08:58.361Z,61.02
2022-12-09T21:11:33.177Z,61.09
2022-12-09T21:14:09.025Z,60.98
2022-12-09T21:16:42.769Z,61.01
2022-12-09T21:19:20.205Z,61.15
2022-12-09T21:21:55.748Z,61.14
2022-12-09T21:24:28.789Z,61.21
2022-12-09T21:27:03.080Z,61.22
2022-12-09T21:29:36.986Z,61.30
2022-12-09T21:32:09.396Z,61.21
2022-12-09T21:34:44.261Z,61.22
2022-12-09T21:37:19.119Z,61.18
2022-12-09T21:39:53.950Z,61.06
2022-12-09T21:42:28.893Z,61.10
2022-12-09T21:45:04.400Z,61.36
2022-12-09T21:47:39.455Z,61.53
2022-12-09T21:50:15.046Z,61.44
2022-12-09T21:52:47.713Z,61.20
2022-12-09T21:55:19.794Z,61.18
2022-12-09T21:57:53.950Z,61.50
2022-12-09T22:00:27.058Z,61.72
2022-12-09T22:02:59.423Z,61.62
2022-12-09T22:05:32.207Z,61.72
2022-12-09T22:08:05.079Z,61.48
2022-12-09T22:10:40.489Z,61.39
2022-12-09T22:13:13.211Z,61.42
2022-12-09T22:15:46.305Z,61.35
2022-12-09T22:18:19.713Z,61.27
2022-12-09T22:21:23.548Z,61.31
2022-12-09T22:23:46.789Z,61.73
2022-12-09T22:26:21.235Z,61.68
2022-12-09T22:28:54.917Z,61.48
2022-12-09T22:31:28.287Z,61.50
2022-12-09T22:34:03.143Z,61.51
2022-12-09T22:36:38.504Z,61.52
2022-12-09T22:39:14.020Z,61.66
2022-12-09T22:41:46.484Z,61.73
2022-12-09T22:44:20.271Z,61.78
2022-12-09T22:46:54.047Z,61.66
2022-12-09T22:49:26.968Z,61.62
2022-12-09T22:52:00.927Z,61.73
2022-12-09T22:54:33.501Z,61.84
2022-12-09T22:57:07.087Z,61.91
2022-12-09T22:59:42.950Z,62.05
2022-12-09T23:02:16.507Z,62.20
2022-12-09T23:04:51.291Z,62.21
2022-12-09T23:07:24.821Z,62.18
2022-12-09T23:09:57.362Z,62.15
2022-12-09T23:12:31.442Z,62.14
2022-12-09T23:15:03.278Z,61.84
2022-12-09T23:17:37.246Z,61.93
2022-12-09T23:20:12.315Z,62.05
2022-12-09T23:22:44.973Z,61.93
2022-12-09T23:25:17.451Z,62.08
2022-12-09T23:27:51.936Z,62.07
2022-12-09T23:30:24.504Z,62.32
2022-12-09T23:32:57.001Z,62.31
2022-12-09T23:35:29.186Z,62.42
2022-12-09T23:38:01.023Z,62.47
2022-12-09T23:40:36.656Z,62.42
2022-12-09T23:43:09.879Z,62.52
2022-12-09T23:45:42.939Z,62.93
2022-12-09T23:48:19.741Z,63.11
2022-12-09T23:50:52.435Z,63.32
2022-12-09T23:53:24.666Z,63.39
2022-12-09T23:55:56.777Z,63.37
2022-12-09T23:58:30.952Z,63.42
